Hauptseite
METAR-TAF:

METAR-TAF

Flughäfen :

Militärflugplatz Ghedi

Brescia Ghedi, Italien

Breite: 45-25N, Länge: 010-17E, Höhe: 102 m

Beobachtung

Neuester Wetterbericht von vor 39 Minuten, um 23:55 UTC
Wind 2 kt aus Nordost
Temperatur 20°C
Luftfeuchtigkeit 88%
Luftdruck 1018 hPa
Sichtweite 10 km oder mehr
keine Wolken unter 1500 m und keine Kumulonimbus oder Gewitterwolken

METAR: LIPL 202355Z 05002KT CAVOK 20/18 Q1018 RMK SKC VIS MIN 9999 WIND THR31 06002KT WIND THR13 07002KT BLU

Zeit: 02:34 (00:34 UTC)

Prognose

Neuester Wetterbericht von vor 1 Stunde und 34 Minuten, um 23:00 UTC
Gültige Prognose vom 21 um 00 UTC bis 21 um 09 UTC
Wind 3 kt aus unterschiedlichen Richtungen
Sichtweite 10 km oder mehr
Leicht bewölkt in der Höhe von 4000 ft

TAF: LIPL 202300Z 2100/2109 VRB03KT 9999 FEW040

Wetterbeobachtungen und Prognosen von mehr als 4000 Flughäfen (METAR und TAF Bericht).

Die verfügbaren Stationen werden durch gelbe und rote Markierungen auf der Karte dargestellt.

Führen Sie die Maus auf sie, um den Namen der Station zu sehen.

Darauf klicken, um die Beobachtung von Wetterbeobachtungen und Prognosen zu sehen.

Um die Karte zu ändern : klicken Sie auf den grünen Tasten mit einem schwarzen Kreuz Zum Vergrößern, auf den grünen Button mit einem Gedankenstrich zu verkleinern, oder auf die grünen Pfeile für benachbarte Karten.


METAR-TAF: